createdAt,value
2022-09-24T00:01:28.388Z,11.28
2022-09-24T00:03:57.501Z,11.25
2022-09-24T00:06:24.354Z,11.25
2022-09-24T00:08:55.055Z,11.25
2022-09-24T00:11:24.005Z,11.26
2022-09-24T00:13:51.738Z,11.27
2022-09-24T00:16:20.268Z,11.27
2022-09-24T00:18:47.379Z,11.25
2022-09-24T00:21:24.129Z,11.26
2022-09-24T00:24:02.557Z,11.30
2022-09-24T00:26:47.864Z,11.31
2022-09-24T00:29:18.936Z,11.33
2022-09-24T00:31:45.750Z,11.30
2022-09-24T00:34:12.519Z,11.27
2022-09-24T00:36:39.294Z,11.26
2022-09-24T00:39:06.550Z,11.24
2022-09-24T00:41:37.857Z,11.24
2022-09-24T00:44:41.549Z,11.26
2022-09-24T00:47:30.396Z,11.26
2022-09-24T00:50:06.391Z,11.25
2022-09-24T00:52:35.561Z,11.24
2022-09-24T00:55:02.274Z,11.25
2022-09-24T00:57:29.052Z,11.26
2022-09-24T00:59:56.556Z,11.27
2022-09-24T01:02:24.370Z,11.27
2022-09-24T01:04:55.667Z,11.27
2022-09-24T01:07:23.130Z,11.27
2022-09-24T01:09:49.847Z,11.26
2022-09-24T01:12:29.376Z,11.23
2022-09-24T01:15:12.010Z,11.22
2022-09-24T01:18:05.174Z,11.19
2022-09-24T01:20:53.458Z,11.18
2022-09-24T01:23:49.417Z,11.14
2022-09-24T01:26:42.428Z,11.15
2022-09-24T01:29:43.545Z,11.16
2022-09-24T01:32:37.321Z,11.17
2022-09-24T01:35:16.555Z,11.15
2022-09-24T01:37:49.143Z,11.13
2022-09-24T01:40:18.239Z,11.12
2022-09-24T01:42:46.235Z,11.13
2022-09-24T01:45:14.742Z,11.12
2022-09-24T01:47:41.781Z,11.12
2022-09-24T01:50:11.237Z,11.16
2022-09-24T01:52:48.518Z,11.18
2022-09-24T01:55:19.071Z,11.20
2022-09-24T01:57:50.607Z,11.19
2022-09-24T02:00:19.964Z,11.20
2022-09-24T02:03:02.605Z,11.22
2022-09-24T02:05:37.937Z,11.22
2022-09-24T02:08:36.840Z,11.24
2022-09-24T02:11:11.289Z,11.25
2022-09-24T02:13:46.743Z,11.28
2022-09-24T02:16:18.423Z,11.28
2022-09-24T02:18:48.177Z,11.29
2022-09-24T02:21:16.997Z,11.28
2022-09-24T02:24:08.236Z,11.26
2022-09-24T02:26:34.934Z,11.26
2022-09-24T02:29:01.784Z,11.25
2022-09-24T02:31:31.369Z,11.23
2022-09-24T02:34:22.581Z,11.21
2022-09-24T02:36:50.048Z,11.17
2022-09-24T02:39:17.680Z,11.18
2022-09-24T02:41:49.760Z,11.19
2022-09-24T02:44:17.259Z,11.22
2022-09-24T02:46:47.384Z,11.25
2022-09-24T02:49:14.805Z,11.24
2022-09-24T02:51:42.671Z,11.24
2022-09-24T02:54:10.632Z,11.23
2022-09-24T02:56:37.779Z,11.22
2022-09-24T02:59:04.939Z,11.17
2022-09-24T03:01:33.730Z,11.21
2022-09-24T03:04:01.073Z,11.17
2022-09-24T03:06:28.361Z,11.16
2022-09-24T03:08:54.989Z,11.18
2022-09-24T03:11:22.487Z,11.17
2022-09-24T03:13:50.239Z,11.16
2022-09-24T03:16:18.387Z,11.18
2022-09-24T03:18:47.694Z,11.21
2022-09-24T03:21:18.278Z,11.20
2022-09-24T03:23:45.297Z,11.21
2022-09-24T03:26:12.603Z,11.20
2022-09-24T03:28:39.398Z,11.20
2022-09-24T03:31:08.032Z,11.19
2022-09-24T03:33:43.879Z,11.22
2022-09-24T03:36:17.787Z,11.23
2022-09-24T03:38:45.789Z,11.24
2022-09-24T03:41:13.274Z,11.28
2022-09-24T03:43:40.669Z,11.27
2022-09-24T03:46:09.081Z,11.30
2022-09-24T03:48:37.850Z,11.30
2022-09-24T03:51:12.392Z,11.32
2022-09-24T03:53:39.957Z,11.31
2022-09-24T03:56:07.989Z,11.33
2022-09-24T03:58:38.823Z,11.34
2022-09-24T04:01:07.176Z,11.33
2022-09-24T04:03:34.299Z,11.30
2022-09-24T04:06:00.893Z,11.32
2022-09-24T04:08:27.570Z,11.32
2022-09-24T04:10:55.433Z,11.31
2022-09-24T04:13:22.316Z,11.33
2022-09-24T04:15:50.403Z,11.36
2022-09-24T04:18:18.221Z,11.35
2022-09-24T04:20:45.333Z,11.33
2022-09-24T04:23:12.054Z,11.33
2022-09-24T04:25:40.563Z,11.28
2022-09-24T04:28:09.440Z,11.26
2022-09-24T04:30:37.186Z,11.27
2022-09-24T04:33:04.256Z,11.24
2022-09-24T04:35:32.748Z,11.27
2022-09-24T04:38:00.430Z,11.24
2022-09-24T04:40:28.108Z,11.23
2022-09-24T04:42:54.866Z,11.22
2022-09-24T04:45:22.208Z,11.22
2022-09-24T04:47:54.084Z,11.24
2022-09-24T04:50:21.154Z,11.24
2022-09-24T04:52:53.155Z,11.24
2022-09-24T04:55:20.839Z,11.22
2022-09-24T04:57:47.828Z,11.20
2022-09-24T05:00:17.686Z,11.19
2022-09-24T05:02:44.940Z,11.22
2022-09-24T05:05:13.455Z,11.24
2022-09-24T05:07:41.927Z,11.24
2022-09-24T05:10:08.728Z,11.26
2022-09-24T05:12:36.614Z,11.25
2022-09-24T05:15:04.440Z,11.22
2022-09-24T05:17:31.421Z,11.21
2022-09-24T05:19:59.657Z,11.21
2022-09-24T05:22:30.207Z,11.23
2022-09-24T05:24:56.852Z,11.21
2022-09-24T05:27:24.300Z,11.19
2022-09-24T05:29:50.938Z,11.22
2022-09-24T05:32:20.050Z,11.25
2022-09-24T05:34:47.329Z,11.28
2022-09-24T05:37:15.209Z,11.29
2022-09-24T05:39:42.400Z,11.28
2022-09-24T05:42:14.373Z,11.30
2022-09-24T05:44:42.912Z,11.32
2022-09-24T05:47:10.144Z,11.33
2022-09-24T05:49:37.411Z,11.35
2022-09-24T05:52:04.078Z,11.33
2022-09-24T05:54:30.825Z,11.32
2022-09-24T05:56:57.451Z,11.37
2022-09-24T05:59:25.015Z,11.37
2022-09-24T06:01:52.271Z,11.37
2022-09-24T06:04:19.084Z,11.40
2022-09-24T06:06:45.725Z,11.45
2022-09-24T06:09:12.410Z,11.48
2022-09-24T06:11:40.765Z,11.56
2022-09-24T06:14:08.744Z,11.61
2022-09-24T06:16:36.410Z,11.64
2022-09-24T06:19:03.442Z,11.67
2022-09-24T06:21:30.074Z,11.73
2022-09-24T06:23:57.011Z,11.78
2022-09-24T06:26:26.172Z,11.81
2022-09-24T06:28:52.859Z,11.85
2022-09-24T06:31:19.678Z,11.86
2022-09-24T06:33:46.409Z,11.92
2022-09-24T06:36:13.074Z,11.97
2022-09-24T06:38:40.666Z,12.04
2022-09-24T06:41:08.091Z,12.09
2022-09-24T06:43:35.081Z,12.14
2022-09-24T06:46:02.164Z,12.21
2022-09-24T06:48:30.052Z,12.26
2022-09-24T06:50:58.855Z,12.27
2022-09-24T06:53:25.976Z,12.33
2022-09-24T06:55:53.445Z,12.36
2022-09-24T06:58:21.097Z,12.48
2022-09-24T07:00:59.401Z,12.55
2022-09-24T07:03:27.672Z,12.62
2022-09-24T07:05:54.821Z,12.64
2022-09-24T07:08:22.635Z,12.64
2022-09-24T07:10:49.842Z,12.68
2022-09-24T07:13:17.159Z,12.78
2022-09-24T07:15:44.792Z,12.89
2022-09-24T07:18:12.565Z,12.98
2022-09-24T07:20:41.695Z,13.10
2022-09-24T07:23:10.771Z,13.18
2022-09-24T07:25:38.652Z,13.27
2022-09-24T07:28:07.812Z,13.33
2022-09-24T07:30:35.285Z,13.37
2022-09-24T07:33:02.257Z,13.40
2022-09-24T07:35:29.400Z,13.44
2022-09-24T07:38:00.575Z,13.49
2022-09-24T07:40:28.422Z,13.55
2022-09-24T07:42:55.356Z,13.60
2022-09-24T07:45:28.540Z,13.66
2022-09-24T07:48:00.344Z,13.72
2022-09-24T07:50:28.781Z,13.81
2022-09-24T07:52:56.074Z,13.87
2022-09-24T07:55:23.655Z,13.91
2022-09-24T07:57:52.499Z,13.95
2022-09-24T08:00:21.206Z,14.03
2022-09-24T08:02:48.612Z,14.11
2022-09-24T08:05:16.724Z,14.18
2022-09-24T08:07:50.638Z,14.24
2022-09-24T08:10:17.517Z,14.30
2022-09-24T08:12:44.148Z,14.34
2022-09-24T08:15:10.839Z,14.45
2022-09-24T08:17:37.446Z,14.53
2022-09-24T08:20:04.454Z,14.59
2022-09-24T08:22:31.435Z,14.69
2022-09-24T08:24:58.194Z,14.78
2022-09-24T08:27:25.342Z,14.87
2022-09-24T08:29:52.490Z,14.99
2022-09-24T08:32:19.307Z,15.12
2022-09-24T08:34:45.946Z,15.23
2022-09-24T08:37:13.525Z,15.29
2022-09-24T08:39:40.248Z,15.35
2022-09-24T08:42:13.949Z,15.42
2022-09-24T08:45:07.813Z,15.44
2022-09-24T08:47:51.898Z,15.51
2022-09-24T08:50:28.144Z,15.57
2022-09-24T08:53:16.998Z,15.60
2022-09-24T08:55:48.742Z,15.66
2022-09-24T08:58:46.352Z,15.66
2022-09-24T09:01:13.089Z,15.67
2022-09-24T09:03:40.206Z,15.70
2022-09-24T09:06:46.534Z,15.74
2022-09-24T09:09:39.352Z,15.76
2022-09-24T09:12:12.706Z,15.88
2022-09-24T09:15:00.230Z,16.02
2022-09-24T09:17:47.223Z,16.17
2022-09-24T09:20:31.682Z,16.27
2022-09-24T09:23:05.077Z,16.43
2022-09-24T09:25:37.029Z,16.58
2022-09-24T09:28:16.881Z,16.77
2022-09-24T09:31:08.433Z,16.88
2022-09-24T09:34:01.583Z,17.06
2022-09-24T09:36:39.243Z,17.15
2022-09-24T09:39:08.726Z,17.23
2022-09-24T09:41:52.743Z,17.27
2022-09-24T09:44:24.281Z,17.27
2022-09-24T09:47:31.598Z,17.26
2022-09-24T09:50:06.019Z,17.34
2022-09-24T09:52:38.245Z,17.48
2022-09-24T09:55:06.432Z,17.56
2022-09-24T09:57:36.063Z,17.57
2022-09-24T10:00:05.476Z,17.70
2022-09-24T10:02:43.561Z,17.86
2022-09-24T10:05:24.986Z,18.06
2022-09-24T10:07:54.813Z,18.29
2022-09-24T10:10:24.530Z,18.51
2022-09-24T10:13:10.028Z,18.68
2022-09-24T10:15:49.717Z,18.73
2022-09-24T10:18:17.325Z,18.58
2022-09-24T10:20:51.007Z,18.38
2022-09-24T10:23:22.754Z,18.41
2022-09-24T10:25:51.950Z,18.47
2022-09-24T10:28:39.569Z,18.75
2022-09-24T10:31:18.497Z,19.21
2022-09-24T10:33:49.092Z,19.57
2022-09-24T10:36:22.928Z,19.83
2022-09-24T10:39:00.924Z,20.07
2022-09-24T10:41:30.207Z,20.42
2022-09-24T10:44:05.340Z,20.74
2022-09-24T10:46:50.994Z,21.00
2022-09-24T10:49:39.768Z,21.16
2022-09-24T10:52:36.783Z,21.08
2022-09-24T10:55:03.544Z,21.12
2022-09-24T10:57:30.123Z,21.23
2022-09-24T11:00:01.167Z,21.40
2022-09-24T11:02:54.785Z,21.54
2022-09-24T11:05:23.070Z,21.54
2022-09-24T11:08:26.306Z,21.44
2022-09-24T11:10:58.566Z,21.42
2022-09-24T11:13:30.928Z,21.55
2022-09-24T11:16:23.676Z,21.65
2022-09-24T11:18:56.800Z,21.74
2022-09-24T11:21:41.819Z,21.58
2022-09-24T11:24:33.085Z,21.46
2022-09-24T11:27:24.333Z,21.38
2022-09-24T11:30:16.347Z,21.45
2022-09-24T11:32:54.577Z,21.70
2022-09-24T11:35:35.599Z,21.80
2022-09-24T11:38:05.002Z,21.75
2022-09-24T11:40:46.602Z,21.65
2022-09-24T11:43:50.720Z,21.87
2022-09-24T11:46:22.678Z,22.16
2022-09-24T11:49:24.872Z,22.33
2022-09-24T11:52:09.102Z,22.60
2022-09-24T11:55:05.920Z,22.41
2022-09-24T11:57:41.964Z,22.42
2022-09-24T12:00:17.767Z,22.62
2022-09-24T12:02:56.375Z,22.75
2022-09-24T12:05:49.455Z,22.82
2022-09-24T12:08:34.307Z,22.94
2022-09-24T12:11:20.951Z,23.28
2022-09-24T12:13:47.607Z,23.58
2022-09-24T12:16:25.133Z,23.78
2022-09-24T12:19:23.425Z,23.89
2022-09-24T12:21:52.891Z,24.13
2022-09-24T12:24:38.375Z,24.24
2022-09-24T12:27:13.301Z,24.22
2022-09-24T12:30:34.406Z,24.49
2022-09-24T12:33:11.275Z,24.64
2022-09-24T12:36:18.802Z,24.67
2022-09-24T12:38:51.004Z,24.62
2022-09-24T12:41:17.585Z,24.53
2022-09-24T12:43:50.123Z,24.49
2022-09-24T12:46:21.713Z,24.27
2022-09-24T12:48:50.392Z,23.99
2022-09-24T12:51:22.339Z,23.83
2022-09-24T12:53:58.515Z,23.83
2022-09-24T12:56:30.022Z,23.71
2022-09-24T12:58:58.912Z,23.83
2022-09-24T13:01:25.642Z,24.13
2022-09-24T13:04:13.971Z,24.36
2022-09-24T13:06:42.636Z,24.55
2022-09-24T13:09:38.829Z,24.61
2022-09-24T13:12:20.872Z,24.60
2022-09-24T13:14:58.037Z,24.59
2022-09-24T13:17:25.219Z,24.30
2022-09-24T13:20:05.053Z,24.28
2022-09-24T13:22:35.432Z,24.35
2022-09-24T13:25:19.825Z,24.23
2022-09-24T13:27:59.543Z,24.04
2022-09-24T13:30:29.175Z,23.99
2022-09-24T13:33:24.144Z,23.43
2022-09-24T13:36:05.825Z,23.07
2022-09-24T13:38:42.079Z,22.77
2022-09-24T13:41:33.658Z,22.43
2022-09-24T13:44:06.219Z,22.16
2022-09-24T13:46:36.466Z,22.02
2022-09-24T13:49:11.387Z,22.04
2022-09-24T13:51:41.386Z,22.05
2022-09-24T13:54:36.946Z,22.00
2022-09-24T13:57:20.384Z,21.82
2022-09-24T13:59:46.978Z,21.62
2022-09-24T14:02:28.219Z,21.53
2022-09-24T14:05:00.488Z,21.42
2022-09-24T14:07:28.669Z,21.37
2022-09-24T14:10:13.609Z,21.34
2022-09-24T14:12:40.786Z,21.37
2022-09-24T14:15:15.269Z,21.29
2022-09-24T14:17:42.287Z,21.33
2022-09-24T14:20:16.106Z,21.42
2022-09-24T14:22:46.044Z,21.41
2022-09-24T14:25:17.712Z,21.41
2022-09-24T14:27:49.093Z,21.32
2022-09-24T14:30:19.859Z,21.21
2022-09-24T14:32:50.942Z,21.17
2022-09-24T14:35:21.216Z,21.15
2022-09-24T14:37:54.607Z,21.13
2022-09-24T14:40:23.346Z,20.99
2022-09-24T14:42:56.856Z,20.90
2022-09-24T14:45:37.822Z,20.77
2022-09-24T14:48:17.505Z,20.72
2022-09-24T14:50:44.208Z,20.62
2022-09-24T14:53:36.049Z,20.54
2022-09-24T14:56:21.291Z,20.50
2022-09-24T14:58:48.451Z,20.45
2022-09-24T15:01:17.776Z,20.46
2022-09-24T15:03:56.061Z,20.47
2022-09-24T15:06:28.308Z,20.45
2022-09-24T15:09:07.443Z,20.37
2022-09-24T15:11:40.043Z,20.26
2022-09-24T15:14:27.692Z,20.16
2022-09-24T15:16:55.332Z,20.12
2022-09-24T15:19:23.831Z,20.10
2022-09-24T15:21:52.756Z,20.00
2022-09-24T15:24:20.552Z,19.90
2022-09-24T15:27:08.966Z,19.85
2022-09-24T15:29:38.794Z,19.83
2022-09-24T15:32:12.682Z,19.81
2022-09-24T15:34:39.685Z,19.78
2022-09-24T15:37:16.530Z,19.75
2022-09-24T15:39:48.770Z,19.73
2022-09-24T15:42:26.213Z,19.66
2022-09-24T15:44:56.396Z,19.66
2022-09-24T15:47:23.396Z,19.62
2022-09-24T15:49:50.190Z,19.63
2022-09-24T15:52:29.080Z,19.61
2022-09-24T15:54:58.456Z,19.55
2022-09-24T15:57:28.617Z,19.55
2022-09-24T15:59:55.377Z,19.55
2022-09-24T16:02:29.251Z,19.52
2022-09-24T16:05:01.449Z,19.46
2022-09-24T16:07:30.378Z,19.42
2022-09-24T16:09:56.977Z,19.39
2022-09-24T16:12:28.408Z,19.33
2022-09-24T16:14:59.000Z,19.26
2022-09-24T16:17:26.649Z,19.22
2022-09-24T16:19:53.783Z,19.11
2022-09-24T16:22:21.020Z,19.08
2022-09-24T16:24:48.183Z,19.04
2022-09-24T16:27:15.036Z,19.01
2022-09-24T16:29:41.644Z,18.98
2022-09-24T16:32:08.509Z,18.89
2022-09-24T16:34:35.219Z,18.82
2022-09-24T16:37:01.857Z,18.77
2022-09-24T16:39:28.472Z,18.69
2022-09-24T16:41:55.119Z,18.60
2022-09-24T16:44:21.728Z,18.55
2022-09-24T16:46:48.430Z,18.55
2022-09-24T16:49:15.158Z,18.52
2022-09-24T16:51:41.887Z,18.51
2022-09-24T16:54:08.573Z,18.50
2022-09-24T16:56:35.241Z,18.49
2022-09-24T16:59:01.954Z,18.46
2022-09-24T17:01:28.744Z,18.42
2022-09-24T17:03:57.985Z,18.38
2022-09-24T17:06:27.213Z,18.32
2022-09-24T17:09:12.464Z,18.28
2022-09-24T17:11:40.255Z,18.22
2022-09-24T17:14:13.729Z,18.17
2022-09-24T17:16:41.406Z,18.10
2022-09-24T17:19:09.447Z,18.01
2022-09-24T17:21:38.029Z,17.94
2022-09-24T17:24:05.148Z,17.90
2022-09-24T17:26:31.829Z,17.86
2022-09-24T17:28:58.483Z,17.79
2022-09-24T17:31:25.952Z,17.63
2022-09-24T17:33:57.285Z,17.56
2022-09-24T17:36:25.568Z,17.47
2022-09-24T17:38:52.351Z,17.44
2022-09-24T17:41:19.456Z,17.40
2022-09-24T17:43:46.042Z,17.40
2022-09-24T17:46:21.409Z,17.47
2022-09-24T17:48:51.324Z,17.52
2022-09-24T17:51:24.697Z,17.54
2022-09-24T17:53:53.924Z,17.51
2022-09-24T17:56:24.169Z,17.47
2022-09-24T17:58:52.431Z,17.45
2022-09-24T18:01:33.430Z,17.32
2022-09-24T18:04:00.412Z,17.22
2022-09-24T18:06:32.884Z,17.19
2022-09-24T18:09:01.381Z,17.17
2022-09-24T18:11:31.611Z,17.20
2022-09-24T18:14:00.177Z,17.20
2022-09-24T18:16:31.632Z,17.24
2022-09-24T18:19:00.107Z,17.22
2022-09-24T18:21:28.213Z,17.22
2022-09-24T18:23:56.489Z,17.17
2022-09-24T18:26:29.474Z,17.17
2022-09-24T18:28:58.894Z,17.16
2022-09-24T18:31:28.596Z,17.14
2022-09-24T18:33:57.739Z,17.11
2022-09-24T18:36:28.290Z,17.07
2022-09-24T18:38:56.084Z,17.04
2022-09-24T18:41:25.221Z,17.00
2022-09-24T18:43:53.993Z,16.89
2022-09-24T18:46:22.495Z,16.85
2022-09-24T18:48:53.123Z,16.80
2022-09-24T18:51:34.584Z,16.70
2022-09-24T18:54:03.949Z,16.62
2022-09-24T18:56:31.777Z,16.55
2022-09-24T18:59:09.156Z,16.44
2022-09-24T19:01:37.319Z,16.37
2022-09-24T19:04:04.286Z,16.30
2022-09-24T19:06:31.744Z,16.27
2022-09-24T19:08:58.460Z,16.25
2022-09-24T19:11:25.104Z,16.22
2022-09-24T19:13:54.018Z,16.16
2022-09-24T19:16:26.076Z,16.14
2022-09-24T19:18:53.809Z,16.07
2022-09-24T19:21:22.637Z,16.00
2022-09-24T19:23:51.639Z,15.97
2022-09-24T19:26:25.111Z,15.92
2022-09-24T19:28:52.618Z,15.88
2022-09-24T19:31:22.233Z,15.87
2022-09-24T19:33:50.171Z,15.83
2022-09-24T19:36:17.406Z,15.83
2022-09-24T19:38:44.385Z,15.82
2022-09-24T19:41:15.472Z,15.79
2022-09-24T19:43:45.505Z,15.67
2022-09-24T19:46:14.725Z,15.59
2022-09-24T19:48:44.486Z,15.55
2022-09-24T19:51:24.862Z,15.53
2022-09-24T19:53:58.941Z,15.45
2022-09-24T19:56:26.006Z,15.36
2022-09-24T19:58:54.636Z,15.31
2022-09-24T20:01:28.115Z,15.25
2022-09-24T20:03:56.192Z,15.22
2022-09-24T20:06:25.501Z,15.16
2022-09-24T20:08:52.365Z,15.15
2022-09-24T20:11:21.141Z,15.11
2022-09-24T20:13:49.240Z,15.02
2022-09-24T20:16:21.936Z,14.93
2022-09-24T20:18:50.659Z,14.83
2022-09-24T20:21:18.964Z,14.78
2022-09-24T20:23:47.428Z,14.73
2022-09-24T20:26:44.705Z,14.70
2022-09-24T20:29:13.163Z,14.72
2022-09-24T20:31:51.188Z,14.71
2022-09-24T20:34:25.150Z,14.67
2022-09-24T20:36:52.159Z,14.63
2022-09-24T20:39:19.299Z,14.65
2022-09-24T20:41:45.963Z,14.68
2022-09-24T20:44:12.878Z,14.70
2022-09-24T20:46:39.653Z,14.71
2022-09-24T20:49:06.288Z,14.69
2022-09-24T20:51:33.773Z,14.65
2022-09-24T20:54:01.622Z,14.57
2022-09-24T20:56:30.778Z,14.55
2022-09-24T20:58:58.709Z,14.52
2022-09-24T21:01:25.555Z,14.46
2022-09-24T21:03:53.041Z,14.42
2022-09-24T21:06:23.046Z,14.36
2022-09-24T21:08:51.016Z,14.31
2022-09-24T21:11:23.084Z,14.23
2022-09-24T21:13:52.276Z,14.19
2022-09-24T21:16:21.844Z,14.15
2022-09-24T21:18:50.407Z,14.13
2022-09-24T21:21:20.198Z,14.15
2022-09-24T21:23:49.317Z,14.15
2022-09-24T21:26:21.848Z,14.16
2022-09-24T21:28:50.762Z,14.21
2022-09-24T21:31:21.448Z,14.21
2022-09-24T21:33:50.362Z,14.26
2022-09-24T21:36:19.660Z,14.27
2022-09-24T21:38:56.072Z,14.27
2022-09-24T21:41:25.026Z,14.31
2022-09-24T21:43:53.504Z,14.36
2022-09-24T21:46:20.300Z,14.41
2022-09-24T21:48:47.017Z,14.44
2022-09-24T21:51:21.434Z,14.46
2022-09-24T21:53:53.091Z,14.45
2022-09-24T21:56:20.824Z,14.46
2022-09-24T21:58:52.294Z,14.46
2022-09-24T22:01:26.016Z,14.43
2022-09-24T22:03:55.659Z,14.43
2022-09-24T22:06:28.574Z,14.43
2022-09-24T22:08:58.001Z,14.41
2022-09-24T22:11:27.407Z,14.40
2022-09-24T22:13:55.538Z,14.39
2022-09-24T22:16:22.857Z,14.37
2022-09-24T22:18:49.485Z,14.34
2022-09-24T22:21:16.125Z,14.30
2022-09-24T22:23:42.843Z,14.26
2022-09-24T22:26:10.321Z,14.25
2022-09-24T22:28:38.180Z,14.24
2022-09-24T22:31:08.395Z,14.25
2022-09-24T22:33:54.031Z,14.23
2022-09-24T22:36:21.329Z,14.14
2022-09-24T22:38:50.981Z,14.14
2022-09-24T22:41:17.745Z,14.12
2022-09-24T22:43:44.589Z,14.15
2022-09-24T22:46:13.564Z,14.19
2022-09-24T22:48:40.422Z,14.18
2022-09-24T22:51:08.830Z,14.20
2022-09-24T22:53:38.109Z,14.19
2022-09-24T22:56:16.715Z,14.23
2022-09-24T22:58:45.321Z,14.29
2022-09-24T23:01:17.652Z,14.34
2022-09-24T23:03:44.786Z,14.33
2022-09-24T23:06:12.284Z,14.31
2022-09-24T23:08:40.835Z,14.35
2022-09-24T23:11:10.591Z,14.36
2022-09-24T23:13:38.925Z,14.32
2022-09-24T23:16:17.568Z,14.34
2022-09-24T23:18:46.534Z,14.31
2022-09-24T23:21:19.375Z,14.27
2022-09-24T23:23:46.675Z,14.27
2022-09-24T23:26:19.725Z,14.26
2022-09-24T23:28:50.706Z,14.24
2022-09-24T23:31:17.970Z,14.19
2022-09-24T23:33:44.750Z,14.20
2022-09-24T23:36:13.223Z,14.23
2022-09-24T23:38:41.813Z,14.20
2022-09-24T23:41:10.051Z,14.19
2022-09-24T23:43:37.240Z,14.16
2022-09-24T23:46:04.798Z,14.15
2022-09-24T23:48:31.667Z,14.16
2022-09-24T23:50:58.733Z,14.14
2022-09-24T23:53:26.654Z,14.15
2022-09-24T23:55:54.118Z,14.12
2022-09-24T23:58:23.074Z,14.10
